createdAt,value
2022-09-04T00:01:32.543Z,12.93
2022-09-04T00:04:12.370Z,12.89
2022-09-04T00:06:47.344Z,12.85
2022-09-04T00:09:21.795Z,12.81
2022-09-04T00:11:54.791Z,12.80
2022-09-04T00:14:27.503Z,12.79
2022-09-04T00:17:02.154Z,12.77
2022-09-04T00:19:35.981Z,12.69
2022-09-04T00:22:10.215Z,12.66
2022-09-04T00:24:40.461Z,12.61
2022-09-04T00:27:13.952Z,12.61
2022-09-04T00:29:48.834Z,12.62
2022-09-04T00:32:21.761Z,12.61
2022-09-04T00:34:58.923Z,12.59
2022-09-04T00:37:31.345Z,12.55
2022-09-04T00:40:05.189Z,12.53
2022-09-04T00:42:47.624Z,12.50
2022-09-04T00:45:30.160Z,12.44
2022-09-04T00:48:18.925Z,12.43
2022-09-04T00:51:04.633Z,12.37
2022-09-04T00:53:43.974Z,12.43
2022-09-04T00:56:37.474Z,12.39
2022-09-04T00:59:17.345Z,12.38
2022-09-04T01:01:47.845Z,12.41
2022-09-04T01:04:36.488Z,12.46
2022-09-04T01:07:18.253Z,12.42
2022-09-04T01:10:01.324Z,12.36
2022-09-04T01:12:35.681Z,12.24
2022-09-04T01:15:14.702Z,12.19
2022-09-04T01:17:52.572Z,12.18
2022-09-04T01:20:29.104Z,12.15
2022-09-04T01:23:11.843Z,12.11
2022-09-04T01:26:03.223Z,12.12
2022-09-04T01:29:18.032Z,12.02
2022-09-04T01:31:52.563Z,12.05
2022-09-04T01:34:31.816Z,12.10
2022-09-04T01:37:07.096Z,12.11
2022-09-04T01:39:38.268Z,12.04
2022-09-04T01:42:12.577Z,11.92
2022-09-04T01:44:41.225Z,11.82
2022-09-04T01:47:19.856Z,11.83
2022-09-04T01:49:52.736Z,11.75
2022-09-04T01:52:36.834Z,11.68
2022-09-04T01:55:15.725Z,11.66
2022-09-04T01:57:56.737Z,11.62
2022-09-04T02:00:25.834Z,11.58
2022-09-04T02:02:58.074Z,11.52
2022-09-04T02:05:32.367Z,11.64
2022-09-04T02:08:08.455Z,11.71
2022-09-04T02:10:40.266Z,11.73
2022-09-04T02:13:16.345Z,11.70
2022-09-04T02:15:51.715Z,11.61
2022-09-04T02:18:25.262Z,11.58
2022-09-04T02:20:58.755Z,11.54
2022-09-04T02:23:35.396Z,11.49
2022-09-04T02:26:11.297Z,11.47
2022-09-04T02:28:50.368Z,11.50
2022-09-04T02:31:31.634Z,11.48
2022-09-04T02:34:03.177Z,11.51
2022-09-04T02:36:36.297Z,11.49
2022-09-04T02:39:13.930Z,11.46
2022-09-04T02:41:51.210Z,11.47
2022-09-04T02:44:28.496Z,11.45
2022-09-04T02:47:03.474Z,11.41
2022-09-04T02:49:38.625Z,11.34
2022-09-04T02:52:20.167Z,11.27
2022-09-04T02:55:09.547Z,11.17
2022-09-04T02:57:45.914Z,11.10
2022-09-04T03:00:27.601Z,11.15
2022-09-04T03:03:01.689Z,11.15
2022-09-04T03:05:33.315Z,11.12
2022-09-04T03:08:06.296Z,11.15
2022-09-04T03:10:38.176Z,11.19
2022-09-04T03:13:10.177Z,11.22
2022-09-04T03:15:42.838Z,11.33
2022-09-04T03:18:18.634Z,11.34
2022-09-04T03:20:52.918Z,11.38
2022-09-04T03:23:23.198Z,11.43
2022-09-04T03:26:03.060Z,11.44
2022-09-04T03:28:38.347Z,11.41
2022-09-04T03:31:18.081Z,11.40
2022-09-04T03:33:51.198Z,11.38
2022-09-04T03:36:25.658Z,11.31
2022-09-04T03:39:03.102Z,11.34
2022-09-04T03:41:42.658Z,11.27
2022-09-04T03:44:20.955Z,11.14
2022-09-04T03:47:00.808Z,11.02
2022-09-04T03:49:38.907Z,11.02
2022-09-04T03:52:14.153Z,11.08
2022-09-04T03:54:53.028Z,11.23
2022-09-04T03:57:33.367Z,11.37
2022-09-04T04:00:09.146Z,11.41
2022-09-04T04:02:55.648Z,11.50
2022-09-04T04:05:30.137Z,11.62
2022-09-04T04:08:28.048Z,11.66
2022-09-04T04:11:01.436Z,11.72
2022-09-04T04:13:51.049Z,11.78
2022-09-04T04:16:42.827Z,11.80
2022-09-04T04:19:28.158Z,11.68
2022-09-04T04:22:10.652Z,11.74
2022-09-04T04:25:21.609Z,11.79
2022-09-04T04:28:20.371Z,11.81
2022-09-04T04:30:52.560Z,11.76
2022-09-04T04:33:39.099Z,11.73
2022-09-04T04:36:17.790Z,11.79
2022-09-04T04:38:56.169Z,11.85
2022-09-04T04:42:01.878Z,11.85
2022-09-04T04:44:52.585Z,11.85
2022-09-04T04:47:35.560Z,11.95
2022-09-04T04:50:13.800Z,12.03
2022-09-04T04:52:51.198Z,12.07
2022-09-04T04:55:31.251Z,12.08
2022-09-04T04:58:25.586Z,12.10
2022-09-04T05:01:05.277Z,12.14
2022-09-04T05:03:44.538Z,12.15
2022-09-04T05:06:16.068Z,12.09
2022-09-04T05:08:49.348Z,12.21
2022-09-04T05:11:24.379Z,12.36
2022-09-04T05:14:01.899Z,12.23
2022-09-04T05:16:36.546Z,12.34
2022-09-04T05:19:13.917Z,12.34
2022-09-04T05:21:48.838Z,12.36
2022-09-04T05:24:24.058Z,12.42
2022-09-04T05:26:56.310Z,12.40
2022-09-04T05:29:32.564Z,12.53
2022-09-04T05:32:09.797Z,12.54
2022-09-04T05:35:03.708Z,12.59
2022-09-04T05:37:35.908Z,12.73
2022-09-04T05:40:08.700Z,12.61
2022-09-04T05:42:45.541Z,12.59
2022-09-04T05:45:23.118Z,12.66
2022-09-04T05:48:01.158Z,12.81
2022-09-04T05:50:42.247Z,12.68
2022-09-04T05:53:41.296Z,12.94
2022-09-04T05:56:45.101Z,13.21
2022-09-04T05:59:42.515Z,13.30
2022-09-04T06:02:51.894Z,13.37
2022-09-04T06:05:46.560Z,13.36
2022-09-04T06:08:28.693Z,13.74
2022-09-04T06:11:05.676Z,13.85
2022-09-04T06:13:58.649Z,13.98
2022-09-04T06:16:43.140Z,14.27
2022-09-04T06:19:29.924Z,14.20
2022-09-04T06:22:16.657Z,14.54
2022-09-04T06:25:13.871Z,14.62
2022-09-04T06:27:53.477Z,14.64
2022-09-04T06:30:21.929Z,14.53
2022-09-04T06:33:18.252Z,14.38
2022-09-04T06:35:54.167Z,14.40
2022-09-04T06:38:36.787Z,14.32
2022-09-04T06:41:22.096Z,14.46
2022-09-04T06:43:54.501Z,14.42
2022-09-04T06:46:27.071Z,14.47
2022-09-04T06:49:02.208Z,14.64
2022-09-04T06:51:43.019Z,14.68
2022-09-04T06:54:17.366Z,14.63
2022-09-04T06:57:03.127Z,14.74
2022-09-04T06:59:49.847Z,15.01
2022-09-04T07:02:31.361Z,15.12
2022-09-04T07:05:10.317Z,15.22
2022-09-04T07:07:42.575Z,14.98
2022-09-04T07:10:13.969Z,15.11
2022-09-04T07:12:55.546Z,15.25
2022-09-04T07:15:38.864Z,15.40
2022-09-04T07:18:18.672Z,15.52
2022-09-04T07:20:56.270Z,15.53
2022-09-04T07:23:32.838Z,15.57
2022-09-04T07:26:08.819Z,15.67
2022-09-04T07:29:30.649Z,15.86
2022-09-04T07:32:03.154Z,16.18
2022-09-04T07:34:40.099Z,16.40
2022-09-04T07:37:23.533Z,16.52
2022-09-04T07:39:58.025Z,17.32
2022-09-04T07:42:35.950Z,18.08
2022-09-04T07:45:06.661Z,18.12
2022-09-04T07:47:38.446Z,18.39
2022-09-04T07:50:11.914Z,18.94
2022-09-04T07:52:55.180Z,18.97
2022-09-04T07:55:29.148Z,19.23
2022-09-04T07:58:31.663Z,19.17
2022-09-04T08:01:16.668Z,18.70
2022-09-04T08:04:05.084Z,18.64
2022-09-04T08:06:38.398Z,18.45
2022-09-04T08:09:24.643Z,18.57
2022-09-04T08:12:16.016Z,18.63
2022-09-04T08:14:54.354Z,18.94
2022-09-04T08:17:43.248Z,19.26
2022-09-04T08:20:21.755Z,19.28
2022-09-04T08:22:56.915Z,19.32
2022-09-04T08:25:30.502Z,19.34
2022-09-04T08:28:19.059Z,19.72
2022-09-04T08:30:54.977Z,19.92
2022-09-04T08:33:44.976Z,19.86
2022-09-04T08:36:21.083Z,20.33
2022-09-04T08:39:04.596Z,20.64
2022-09-04T08:42:15.215Z,20.64
2022-09-04T08:45:20.471Z,20.59
2022-09-04T08:48:32.672Z,20.78
2022-09-04T08:52:00.614Z,20.21
2022-09-04T08:55:03.415Z,20.44
2022-09-04T08:58:14.272Z,20.97
2022-09-04T09:00:58.276Z,21.85
2022-09-04T09:03:42.652Z,21.85
2022-09-04T09:06:59.085Z,21.77
2022-09-04T09:09:46.465Z,22.19
2022-09-04T09:12:53.064Z,21.97
2022-09-04T09:15:38.434Z,22.11
2022-09-04T09:18:18.418Z,22.23
2022-09-04T09:20:50.834Z,21.69
2022-09-04T09:23:21.397Z,22.12
2022-09-04T09:26:18.574Z,22.11
2022-09-04T09:29:13.835Z,22.00
2022-09-04T09:32:09.373Z,22.23
2022-09-04T09:34:55.415Z,21.82
2022-09-04T09:38:04.287Z,21.60
2022-09-04T09:40:58.070Z,21.17
2022-09-04T09:44:00.048Z,20.50
2022-09-04T09:47:10.094Z,20.63
2022-09-04T09:50:04.291Z,20.90
2022-09-04T09:53:08.664Z,21.00
2022-09-04T09:56:02.534Z,21.31
2022-09-04T09:59:07.264Z,21.03
2022-09-04T10:02:00.458Z,20.89
2022-09-04T10:04:44.814Z,21.30
2022-09-04T10:07:39.304Z,21.43
2022-09-04T10:10:25.014Z,21.45
2022-09-04T10:13:16.265Z,21.22
2022-09-04T10:16:05.730Z,21.23
2022-09-04T10:18:59.373Z,20.87
2022-09-04T10:21:59.238Z,20.46
2022-09-04T10:24:59.285Z,20.99
2022-09-04T10:27:44.164Z,21.27
2022-09-04T10:30:13.724Z,21.84
2022-09-04T10:33:12.795Z,22.24
2022-09-04T10:35:54.939Z,22.79
2022-09-04T10:38:28.684Z,22.97
2022-09-04T10:41:22.987Z,22.62
2022-09-04T10:44:03.873Z,22.58
2022-09-04T10:46:37.545Z,22.81
2022-09-04T10:49:29.655Z,22.91
2022-09-04T10:52:31.905Z,23.03
2022-09-04T10:55:11.993Z,22.91
2022-09-04T10:58:05.643Z,22.83
2022-09-04T11:00:37.933Z,22.54
2022-09-04T11:03:28.277Z,22.45
2022-09-04T11:06:49.524Z,22.50
2022-09-04T11:09:31.775Z,22.63
2022-09-04T11:12:12.945Z,22.77
2022-09-04T11:15:03.776Z,22.89
2022-09-04T11:18:19.465Z,23.10
2022-09-04T11:21:23.233Z,23.39
2022-09-04T11:24:23.896Z,23.65
2022-09-04T11:27:31.225Z,24.39
2022-09-04T11:30:07.435Z,24.48
2022-09-04T11:33:16.293Z,25.04
2022-09-04T11:36:09.775Z,25.47
2022-09-04T11:39:02.775Z,25.44
2022-09-04T11:41:57.896Z,25.57
2022-09-04T11:45:05.845Z,26.19
2022-09-04T11:48:00.476Z,26.69
2022-09-04T11:50:38.597Z,25.90
2022-09-04T11:54:00.582Z,25.22
2022-09-04T11:56:42.046Z,25.69
2022-09-04T11:59:32.853Z,25.95
2022-09-04T12:02:17.429Z,25.68
2022-09-04T12:05:01.328Z,25.57
2022-09-04T12:07:51.274Z,25.20
2022-09-04T12:10:45.637Z,24.96
2022-09-04T12:13:52.974Z,24.42
2022-09-04T12:16:53.130Z,23.89
2022-09-04T12:19:40.100Z,23.74
2022-09-04T12:22:45.027Z,23.67
2022-09-04T12:25:23.910Z,23.93
2022-09-04T12:28:13.366Z,23.62
2022-09-04T12:30:52.756Z,23.60
2022-09-04T12:33:37.647Z,23.44
2022-09-04T12:36:27.541Z,23.53
2022-09-04T12:39:32.083Z,23.70
2022-09-04T12:42:06.346Z,23.56
2022-09-04T12:44:43.966Z,23.21
2022-09-04T12:47:25.406Z,23.34
2022-09-04T12:50:22.267Z,23.51
2022-09-04T12:53:31.693Z,23.27
2022-09-04T12:56:06.216Z,23.82
2022-09-04T12:58:48.057Z,25.14
2022-09-04T13:01:32.355Z,25.23
2022-09-04T13:04:12.445Z,24.94
2022-09-04T13:06:53.253Z,25.11
2022-09-04T13:09:25.957Z,28.23
2022-09-04T13:12:03.016Z,28.23
2022-09-04T13:14:50.287Z,33.65
2022-09-04T13:17:23.566Z,34.76
2022-09-04T13:20:00.527Z,35.04
2022-09-04T13:22:34.937Z,34.01
2022-09-04T13:25:10.548Z,31.12
2022-09-04T13:27:51.628Z,28.70
2022-09-04T13:30:24.625Z,27.02
2022-09-04T13:33:12.896Z,26.89
2022-09-04T13:35:50.617Z,27.08
2022-09-04T13:38:39.367Z,29.14
2022-09-04T13:41:30.280Z,32.64
2022-09-04T13:44:26.978Z,31.29
2022-09-04T13:47:01.523Z,33.36
2022-09-04T13:49:31.288Z,34.56
2022-09-04T13:52:07.385Z,35.68
2022-09-04T13:54:37.838Z,35.35
2022-09-04T13:57:09.832Z,32.10
2022-09-04T13:59:38.578Z,29.13
2022-09-04T14:02:12.509Z,28.66
2022-09-04T14:04:44.809Z,27.00
2022-09-04T14:07:17.578Z,26.41
2022-09-04T14:09:47.758Z,26.11
2022-09-04T14:12:41.638Z,25.86
2022-09-04T14:15:33.019Z,25.65
2022-09-04T14:18:14.090Z,24.98
2022-09-04T14:20:51.357Z,24.77
2022-09-04T14:23:24.298Z,24.31
2022-09-04T14:25:57.399Z,24.12
2022-09-04T14:28:31.221Z,24.04
2022-09-04T14:31:10.412Z,24.51
2022-09-04T14:33:47.367Z,24.85
2022-09-04T14:36:25.061Z,25.14
2022-09-04T14:39:04.167Z,25.54
2022-09-04T14:41:42.727Z,25.25
2022-09-04T14:44:20.580Z,25.36
2022-09-04T14:46:59.142Z,25.49
2022-09-04T14:49:31.793Z,25.75
2022-09-04T14:52:03.479Z,25.63
2022-09-04T14:54:36.339Z,25.46
2022-09-04T14:57:13.670Z,25.24
2022-09-04T14:59:45.747Z,25.32
2022-09-04T15:02:23.035Z,25.33
2022-09-04T15:04:55.069Z,25.50
2022-09-04T15:07:35.401Z,25.41
2022-09-04T15:10:15.700Z,25.20
2022-09-04T15:12:45.719Z,25.24
2022-09-04T15:15:18.199Z,25.16
2022-09-04T15:17:51.678Z,24.79
2022-09-04T15:20:23.907Z,24.53
2022-09-04T15:22:54.970Z,24.17
2022-09-04T15:25:59.801Z,24.20
2022-09-04T15:28:30.939Z,24.28
2022-09-04T15:31:13.280Z,24.19
2022-09-04T15:33:43.970Z,24.23
2022-09-04T15:36:18.516Z,24.51
2022-09-04T15:38:52.680Z,24.65
2022-09-04T15:41:26.277Z,24.61
2022-09-04T15:43:59.548Z,24.67
2022-09-04T15:46:37.354Z,24.77
2022-09-04T15:49:19.790Z,24.62
2022-09-04T15:51:53.010Z,24.70
2022-09-04T15:54:29.070Z,24.64
2022-09-04T15:57:01.396Z,24.64
2022-09-04T15:59:37.350Z,24.61
2022-09-04T16:02:12.754Z,24.38
2022-09-04T16:04:46.210Z,24.30
2022-09-04T16:07:40.481Z,23.98
2022-09-04T16:10:16.312Z,23.57
2022-09-04T16:12:52.601Z,23.33
2022-09-04T16:15:27.298Z,23.24
2022-09-04T16:17:56.791Z,22.98
2022-09-04T16:20:30.937Z,22.82
2022-09-04T16:23:04.170Z,22.76
2022-09-04T16:25:34.310Z,22.68
2022-09-04T16:28:06.260Z,22.53
2022-09-04T16:30:41.831Z,22.45
2022-09-04T16:33:27.721Z,22.45
2022-09-04T16:36:00.721Z,22.30
2022-09-04T16:38:33.500Z,22.17
2022-09-04T16:41:06.280Z,22.05
2022-09-04T16:43:35.491Z,21.92
2022-09-04T16:46:10.096Z,21.92
2022-09-04T16:48:44.563Z,21.85
2022-09-04T16:51:40.010Z,21.93
2022-09-04T16:54:13.571Z,21.88
2022-09-04T16:56:43.709Z,21.74
2022-09-04T16:59:25.111Z,21.68
2022-09-04T17:02:00.864Z,21.64
2022-09-04T17:04:35.882Z,21.47
2022-09-04T17:07:15.549Z,21.28
2022-09-04T17:09:51.741Z,21.09
2022-09-04T17:12:28.626Z,20.91
2022-09-04T17:15:00.333Z,20.79
2022-09-04T17:17:31.969Z,20.61
2022-09-04T17:20:06.553Z,20.43
2022-09-04T17:28:54.691Z,20.47
2022-09-04T17:29:13.396Z,19.95
2022-09-04T17:29:18.361Z,20.22
2022-09-04T17:31:23.442Z,19.79
2022-09-04T17:40:31.824Z,19.65
2022-09-04T17:40:47.891Z,19.43
2022-09-04T17:40:52.535Z,19.24
2022-09-04T17:42:58.453Z,19.05
2022-09-04T17:45:35.641Z,18.85
2022-09-04T17:48:17.211Z,18.68
2022-09-04T17:50:50.023Z,18.68
2022-09-04T17:53:33.741Z,18.57
2022-09-04T17:56:06.800Z,18.41
2022-09-04T17:58:43.201Z,18.20
2022-09-04T18:01:15.849Z,18.04
2022-09-04T18:04:19.918Z,17.86
2022-09-04T18:06:42.221Z,17.72
2022-09-04T18:09:13.691Z,17.57
2022-09-04T18:12:00.084Z,17.45
2022-09-04T18:14:37.471Z,17.34
2022-09-04T18:17:11.919Z,17.21
2022-09-04T18:19:45.931Z,17.12
2022-09-04T18:22:31.900Z,17.02
2022-09-04T18:25:15.750Z,17.11
2022-09-04T18:28:11.717Z,17.08
2022-09-04T18:37:08.981Z,17.00
2022-09-04T18:37:20.595Z,16.84
2022-09-04T18:37:20.966Z,16.72
2022-09-04T18:39:36.232Z,16.62
2022-09-04T18:50:29.609Z,16.49
2022-09-04T18:50:30.793Z,16.29
2022-09-04T18:50:36.801Z,16.25
2022-09-04T18:51:18.383Z,16.16
2022-09-04T18:53:44.712Z,16.10
2022-09-04T18:56:20.952Z,16.11
2022-09-04T18:58:58.102Z,16.12
2022-09-04T19:01:28.516Z,16.10
2022-09-04T19:04:18.898Z,15.99
2022-09-04T19:06:55.785Z,15.98
2022-09-04T19:09:55.296Z,15.91
2022-09-04T19:12:25.670Z,15.86
2022-09-04T19:15:08.762Z,15.75
2022-09-04T19:17:38.186Z,15.72
2022-09-04T19:20:13.102Z,15.65
2022-09-04T19:22:46.257Z,15.61
2022-09-04T19:25:17.996Z,15.62
2022-09-04T19:27:51.863Z,15.72
2022-09-04T19:30:25.106Z,15.68
2022-09-04T19:33:03.174Z,15.59
2022-09-04T19:35:38.367Z,15.53
2022-09-04T19:43:51.283Z,15.43
2022-09-04T19:45:59.683Z,15.41
2022-09-04T19:46:05.990Z,15.39
2022-09-04T19:46:58.292Z,15.41
2022-09-04T19:52:57.518Z,15.42
2022-09-04T19:53:35.988Z,15.42
2022-09-04T19:55:26.046Z,15.37
2022-09-04T19:58:01.873Z,15.37
2022-09-04T20:00:44.055Z,15.30
2022-09-04T20:03:29.616Z,15.36
2022-09-04T20:06:20.103Z,15.25
2022-09-04T20:08:54.473Z,15.17
2022-09-04T20:11:32.403Z,15.20
2022-09-04T20:14:14.083Z,15.18
2022-09-04T20:16:48.534Z,-148.82
2022-09-04T20:19:27.715Z,-148.82
2022-09-04T20:22:02.435Z,-148.82
2022-09-04T20:24:37.724Z,-148.82
2022-09-04T20:27:10.397Z,-148.82
2022-09-04T20:29:41.064Z,-148.82
2022-09-04T20:32:13.006Z,-148.82
2022-09-04T20:34:46.212Z,-148.82
2022-09-04T20:37:29.974Z,-148.82
2022-09-04T20:40:06.798Z,-148.82
2022-09-04T20:42:38.683Z,-148.82
2022-09-04T20:49:04.753Z,-148.82
2022-09-04T20:52:44.634Z,-148.82
2022-09-04T20:52:53.515Z,-148.82
2022-09-04T20:53:48.658Z,-148.82
2022-09-04T20:56:51.989Z,15.15
2022-09-04T21:03:07.646Z,14.30
2022-09-04T21:03:17.613Z,14.22
2022-09-04T21:05:23.134Z,14.18
2022-09-04T21:07:55.034Z,14.13
2022-09-04T21:10:27.376Z,14.18
2022-09-04T21:13:13.437Z,14.13
2022-09-04T21:15:48.397Z,14.06
2022-09-04T21:18:38.445Z,13.99
2022-09-04T21:21:30.135Z,14.00
2022-09-04T21:24:27.423Z,13.96
2022-09-04T21:27:22.078Z,13.81
2022-09-04T21:30:07.999Z,13.81
2022-09-04T21:33:26.843Z,13.80
2022-09-04T21:35:54.435Z,13.75
2022-09-04T21:38:48.755Z,13.77
2022-09-04T21:41:33.796Z,13.80
2022-09-04T21:44:36.118Z,13.79
2022-09-04T21:47:37.418Z,13.79
2022-09-04T21:50:34.485Z,13.85
2022-09-04T21:53:24.225Z,13.74
2022-09-04T22:00:30.697Z,13.63
2022-09-04T22:02:35.290Z,13.53
2022-09-04T22:02:41.702Z,13.49
2022-09-04T22:05:18.668Z,13.54
2022-09-04T22:12:13.057Z,13.54
2022-09-04T22:13:38.856Z,13.58
2022-09-04T22:13:50.385Z,13.52
2022-09-04T22:16:30.796Z,13.48
2022-09-04T22:19:17.100Z,13.44
2022-09-04T22:22:03.387Z,13.40
2022-09-04T22:25:12.491Z,13.34
2022-09-04T22:28:14.327Z,13.35
2022-09-04T22:31:00.842Z,13.33
2022-09-04T22:34:15.190Z,13.29
2022-09-04T22:37:12.973Z,13.24
2022-09-04T22:39:57.832Z,13.22
2022-09-04T22:42:40.347Z,13.21
2022-09-04T22:45:24.124Z,13.16
2022-09-04T22:48:19.425Z,13.11
2022-09-04T22:51:01.380Z,13.10
2022-09-04T22:53:58.868Z,13.09
2022-09-04T22:56:49.078Z,13.02
2022-09-04T22:59:43.798Z,12.98
2022-09-04T23:03:08.496Z,12.92
2022-09-04T23:07:28.005Z,12.86
2022-09-04T23:13:43.768Z,12.77
2022-09-04T23:13:51.606Z,12.70
2022-09-04T23:15:57.948Z,12.70
2022-09-04T23:21:16.627Z,12.84
2022-09-04T23:26:44.145Z,12.80
2022-09-04T23:26:49.026Z,12.80
2022-09-04T23:27:55.898Z,12.76
2022-09-04T23:30:27.152Z,12.77
2022-09-04T23:33:27.876Z,12.79
2022-09-04T23:36:28.382Z,12.83
2022-09-04T23:39:24.199Z,12.82
2022-09-04T23:42:00.824Z,12.79
2022-09-04T23:44:58.296Z,12.84
2022-09-04T23:47:47.766Z,12.80
2022-09-04T23:50:30.427Z,12.77
2022-09-04T23:53:06.323Z,12.85
2022-09-04T23:55:51.594Z,12.83
2022-09-04T23:58:52.211Z,12.77
